Language selection

Weather shortcuts

Dixon Entrance West - east of Langara: Past 24 Hour Conditions

 

South Hecate Strait - 46185

09:00 PM PDT 21 May 2024Buoy position: 52.85N 130.08W
Disclaimer

This table is a summary of hourly weather conditions for the past 24 hours.
Please note that these observations might not always be representative of weather conditions over their associated marine area.

Date / Time
(PDT)
Wind(knots) Wave height(m) Wave period(s) Pressure(kPa) Air tempC) Water tempC)
21 May 2024
21:00 NNE 25 gusts 29 2.30 6.2 101.8 10 11
20:00 ENE 23 gusts 29 2.40 6.4 101.8 10 11
19:00 NNE 24 gusts 30 2.30 6.4 101.8 10 11
18:00 NNE 26 gusts 31 2.30 6.2 101.8 10 11
17:00 NNE 24 gusts 30 2.10 6.2 101.8 10 11
16:00 ENE 24 gusts 29 2.10 6.6 101.8 9 11
15:00 ENE 24 gusts 29 2.00 6.2 101.8 9 11
14:00 NNE 22 gusts 26 2.00 5.8 101.9 9 11
13:00 NNE 21 gusts 25 1.60 5.8 101.8 9 11
12:00 NNE 21 gusts 25 1.60 5.3 101.8 9 11
11:00 NNE 21 gusts 24 1.50 5.0 101.8 9 11
10:00 NNE 19 gusts 23 1.40 17.1 101.8 9 11
9:00 NE 15 gusts 21 1.30 4.8 101.8 9 11
8:00 E 17 gusts 21 1.10 17.1 101.8 9 11
7:00 NE 19 gusts 22 1.00 17.1 101.8 9 11
6:00 NE 18 gusts 21 0.80 17.1 101.8 9 11
5:00 NE 14 gusts 16 N/A 17.1 101.8 9 11
4:00 NE 12 gusts 15 N/A 17.1 101.8 9 11
3:00 NNE 9 gusts 10 N/A 17.1 101.8 9 11
2:00 NNE 4 gusts 5 0.70 18.3 101.9 9 11
1:00 N 4 gusts 5 0.70 18.3 101.9 9 11
0:00 NNW 4 gusts 5 0.70 15.1 101.9 9 11
20 May 2024
23:00 NNW 8 gusts 10 N/A 17.1 102.0 8 11
22:00 NW 11 gusts 13 N/A 17.1 102.0 9 11
21:00 WNW 9 gusts 11 N/A 17.1 102.1 9 11

Zoom-in to make a selection

Map of Pacific - North Coast marine weather areas Middle Nomad - 46004 South Nomad - 46036 Dixon Entrance Central - 46145 South Moresby - 46147 Nanakwa Shoal - 46181 North Hecate Strait - 46183 North Nomad - 46184 South Hecate Strait - 46185 West Sea Otter - 46204 West Dixon Entrance - 46205 East Dellwood - 46207 West Moresby - 46208 Sartine Island Cape St.James Kindakun Rocks Langara Island Masset Municipal Airport Rose Spit Sandspit Airport Bella Bella Airport Bella Coola Airport Bonilla Island Cathedral Point Cumshewa Island Grey Islet Holland Rock Lucy Islands Lightstation Prince Rupert Airport
Legend:
buoy Buoy
land station Land Station

Pacific - North Coast Area

Another Region

Date modified: